Time;durP1;ratioP1;P1;durP2;ratioP2;P2;SDS_P1;SDS_P2;PMS_P1;PMS_P2;Temp;Humidity;BMP_temperature;BMP_pressure;BME280_temperature;BME280_humidity;BME280_pressure;Samples;Min_cycle;Max_cycle;Signal;HPM_P1;HPM_P2
2023/10/17 00:01:13;;;;;;;17.27;14.35;;;;;;;;;;5061015;28;20048;-59
2023/10/17 00:03:39;;;;;;;20.73;14.77;;;;;;;;;;5061410;28;20063;-59
2023/10/17 00:06:06;;;;;;;21.73;13.05;;;;;;;;;;5061475;28;20094;-59
2023/10/17 00:08:36;;;;;;;15.98;13.23;;;;;;;;;;5061045;28;20104;-59
2023/10/17 00:11:47;;;;;;;15.70;13.07;;;;;;;;;;5060651;28;20055;-59
2023/10/17 00:14:07;;;;;;;17.83;14.48;;;;;;;;;;5061032;28;20040;-59
2023/10/17 00:16:33;;;;;;;18.42;15.50;;;;;;;;;;5061005;28;20685;-59
2023/10/17 00:19:04;;;;;;;21.05;15.50;;;;;;;;;;5060192;28;20072;-59
2023/10/17 00:21:32;;;;;;;19.30;14.40;;;;;;;;;;5060150;28;20460;-59
2023/10/17 00:24:01;;;;;;;17.13;12.48;;;;;;;;;;5060196;28;20048;-59
2023/10/17 00:26:27;;;;;;;12.90;10.32;;;;;;;;;;5060075;28;20108;-59
2023/10/17 00:28:53;;;;;;;13.70;10.23;;;;;;;;;;5058554;28;20052;-59
2023/10/17 00:31:22;;;;;;;13.70;10.55;;;8.50;99.90;;;;;;5060154;28;20022;-60
2023/10/17 00:33:57;;;;;;;12.20;9.85;;;;;;;;;;5060810;28;20036;-59
2023/10/17 00:36:26;;;;;;;14.00;10.07;;;;;;;;;;5060676;28;20644;-61
2023/10/17 00:38:54;;;;;;;12.13;9.95;;;;;;;;;;5060457;28;20029;-60
2023/10/17 00:41:34;;;;;;;15.55;10.50;;;;;;;;;;5060705;28;20021;-59
2023/10/17 00:44:00;;;;;;;15.40;9.70;;;;;;;;;;5060088;28;20420;-59
2023/10/17 00:46:26;;;;;;;13.27;9.30;;;;;;;;;;5059722;28;20107;-60
2023/10/17 00:48:53;;;;;;;16.30;10.05;;;;;;;;;;5059916;28;20067;-59
2023/10/17 00:51:21;;;;;;;12.20;9.45;;;;;;;;;;5059796;28;20025;-59
2023/10/17 00:53:47;;;;;;;14.75;10.30;;;;;;;;;;5060607;28;20017;-59
2023/10/17 00:56:13;;;;;;;14.10;9.60;;;;;;;;;;5059994;28;20024;-59
2023/10/17 00:58:43;;;;;;;13.25;10.48;;;;;;;;;;5059864;28;20100;-60
2023/10/17 01:01:09;;;;;;;14.48;11.00;;;;;;;;;;5062554;28;20460;-59
2023/10/17 01:03:43;;;;;;;13.05;9.02;;;;;;;;;;5063678;28;20017;-60
2023/10/17 01:06:13;;;;;;;11.43;9.20;;;;;;;;;;5062626;28;20047;-59
2023/10/17 01:08:44;;;;;;;13.50;9.40;;;;;;;;;;5063509;28;20063;-59
2023/10/17 01:11:31;;;;;;;11.82;8.95;;;;;;;;;;5063580;28;20025;-60
2023/10/17 01:13:57;;;;;;;11.35;9.10;;;;;;;;;;5064129;28;20037;-59
2023/10/17 01:16:25;;;;;;;11.02;8.68;;;;;;;;;;5064143;28;20556;-60
2023/10/17 01:18:53;;;;;;;10.88;8.88;;;;;;;;;;5064236;28;20083;-59
2023/10/17 01:21:20;;;;;;;15.45;9.05;;;;;;;;;;5064112;28;20052;-59
2023/10/17 01:23:47;;;;;;;12.75;9.35;;;;;;;;;;5062322;28;20459;-59
2023/10/17 01:26:20;;;;;;;15.73;10.73;;;;;;;;;;5063505;28;20052;-59
2023/10/17 01:28:51;;;;;;;17.20;12.25;;;;;;;;;;5063455;28;20496;-58
2023/10/17 01:31:26;;;;;;;17.88;11.32;;;;;;;;;;5063976;28;20021;-59
2023/10/17 01:33:55;;;;;;;14.35;10.63;;;;;;;;;;5064175;28;20030;-59
2023/10/17 01:36:23;;;;;;;14.20;10.20;;;;;;;;;;5063206;28;20035;-59
2023/10/17 01:38:49;;;;;;;13.65;10.85;;;;;;;;;;5063624;28;20036;-59
2023/10/17 01:41:19;;;;;;;14.25;10.10;;;;;;;;;;5063476;28;20031;-60
2023/10/17 01:43:48;;;;;;;14.63;10.60;;;;;;;;;;5062985;28;20021;-59
2023/10/17 01:46:15;;;;;;;15.90;9.88;;;;;;;;;;5063092;28;20021;-59
2023/10/17 01:49:10;;;;;;;16.42;11.00;;;;;;;;;;5062779;28;20483;-59
2023/10/17 01:51:29;;;;;;;16.92;10.65;;;;;;;;;;5064382;28;20036;-59
2023/10/17 01:53:55;;;;;;;15.70;11.07;;;;;;;;;;5062976;28;20029;-59
2023/10/17 01:56:26;;;;;;;12.75;10.10;;;;;;;;;;5062720;28;20475;-59
2023/10/17 01:58:55;;;;;;;15.10;10.75;;;;;;;;;;5062555;28;20068;-59
2023/10/17 02:01:25;;;;;;;16.40;11.95;;;;;;;;;;5062389;28;20068;-59
2023/10/17 02:03:52;;;;;;;16.45;10.82;;;;;;;;;;5062962;28;20025;-59
2023/10/17 02:06:21;;;;;;;15.45;11.07;;;;;;;;;;5063149;28;20499;-59
2023/10/17 02:08:48;;;;;;;12.85;10.32;;;;;;;;;;5062829;28;20357;-59
2023/10/17 02:11:23;;;;;;;14.60;10.20;;;9.50;99.90;;;;;;5062181;28;20028;-59
2023/10/17 02:13:59;;;;;;;14.65;10.18;;;9.50;99.90;;;;;;5062959;28;20028;-59
2023/10/17 02:16:29;;;;;;;13.05;10.55;;;9.70;99.90;;;;;;5063027;28;20024;-60
2023/10/17 02:19:08;;;;;;;15.07;12.23;;;;;;;;;;5062852;28;20032;-60
2023/10/17 02:21:40;;;;;;;13.15;10.85;;;9.50;99.90;;;;;;5060686;28;20033;-60
2023/10/17 02:24:06;;;;;;;15.63;10.85;;;9.60;99.90;;;;;;5062994;28;20483;-60
2023/10/17 02:26:42;;;;;;;14.65;11.05;;;9.30;99.90;;;;;;5062571;28;20028;-60
2023/10/17 02:29:11;;;;;;;19.23;12.25;;;8.90;99.90;;;;;;5062844;28;20122;-60
2023/10/17 02:31:38;;;;;;;14.25;10.73;;;8.70;99.90;;;;;;5062860;28;20028;-60
2023/10/17 02:34:04;;;;;;;12.48;10.18;;;8.70;99.90;;;;;;5063000;28;20033;-60
2023/10/17 02:36:29;;;;;;;14.82;10.30;;;8.50;99.90;;;;;;5062131;28;20025;-60
2023/10/17 02:38:56;;;;;;;12.27;9.40;;;8.50;99.90;;;;;;5026159;28;20132;-60
2023/10/17 02:41:22;;;;;;;16.90;10.43;;;8.70;99.90;;;;;;5062240;28;20141;-60
2023/10/17 02:43:55;;;;;;;16.20;10.10;;;8.90;99.90;;;;;;5062057;28;20029;-60
2023/10/17 02:46:27;;;;;;;14.05;9.98;;;;;;;;;;5061711;28;20033;-60
2023/10/17 02:48:54;;;;;;;15.90;10.75;;;9.20;99.90;;;;;;5061499;28;20060;-60
2023/10/17 02:53:53;;;;;;;17.83;11.70;;;;;;;;;;5061999;28;20036;-59
2023/10/17 02:56:20;;;;;;;20.10;12.20;;;9.40;99.90;;;;;;5062392;28;20045;-60
2023/10/17 03:01:37;;;;;;;14.77;11.18;;;9.40;99.90;;;;;;5021096;28;20048;-59
2023/10/17 03:04:10;;;;;;;20.08;14.32;;;9.40;99.90;;;;;;5019648;28;20171;-59
2023/10/17 03:06:37;;;;;;;25.63;14.77;;;;;;;;;;5021064;28;20041;-60
2023/10/17 03:17:09;;;;;;;27.17;14.82;;;9.50;99.90;;;;;;5021132;28;20471;-60
2023/10/17 03:19:36;;;;;;;18.20;11.45;;;9.50;99.90;;;;;;4993481;28;20042;-61
2023/10/17 03:22:17;;;;;;;18.80;12.15;;;9.50;99.90;;;;;;5019320;28;20088;-59
2023/10/17 03:24:44;;;;;;;19.50;11.57;;;9.50;99.90;;;;;;5020029;28;20057;-60
2023/10/17 03:30:19;;;;;;;17.70;10.10;;;9.50;99.90;;;;;;4960342;28;20042;-59
2023/10/17 03:35:24;;;;;;;17.05;11.43;;;9.50;99.90;;;;;;4961714;28;20038;-59
2023/10/17 03:37:49;;;;;;;17.17;10.60;;;9.50;99.90;;;;;;4970634;28;20042;-60
2023/10/17 03:40:17;;;;;;;14.70;10.25;;;9.50;99.90;;;;;;5018805;28;20026;-59
2023/10/17 03:42:46;;;;;;;15.32;10.30;;;9.60;99.90;;;;;;5018604;28;20042;-60
2023/10/17 03:45:26;;;;;;;16.48;10.63;;;9.60;99.90;;;;;;5018525;28;20528;-60
2023/10/17 03:48:04;;;;;;;18.88;12.20;;;9.50;99.90;;;;;;5018428;28;20460;-61
2023/10/17 03:50:31;;;;;;;20.17;12.25;;;9.50;99.90;;;;;;5018522;28;20033;-60
2023/10/17 03:53:14;;;;;;;16.70;11.95;;;9.50;99.90;;;;;;4979196;28;20042;-61
2023/10/17 03:55:42;;;;;;;16.88;10.95;;;9.50;99.90;;;;;;4963668;28;20490;-60
2023/10/17 04:00:53;;;;;;;18.83;12.48;;;9.30;99.90;;;;;;5012714;28;20032;-60
2023/10/17 04:03:42;;;;;;;23.02;13.70;;;9.20;99.90;;;;;;5058268;28;20442;-60
2023/10/17 04:08:31;;;;;;;27.85;12.82;;;9.20;99.90;;;;;;5058171;28;20116;-59
2023/10/17 04:13:41;;;;;;;23.58;12.75;;;9.20;99.90;;;;;;5058585;28;20094;-59
2023/10/17 04:16:14;;;;;;;14.63;9.85;;;9.20;99.90;;;;;;5056775;28;20435;-60
2023/10/17 04:18:41;;;;;;;23.52;11.75;;;8.70;99.90;;;;;;5058887;28;20045;-59
2023/10/17 04:21:18;;;;;;;27.52;13.73;;;8.50;99.90;;;;;;5058479;28;20452;-60
2023/10/17 04:23:49;;;;;;;26.40;13.00;;;8.50;99.90;;;;;;5059279;28;20056;-60
2023/10/17 04:26:19;;;;;;;24.88;13.07;;;8.40;99.90;;;;;;5043495;28;20036;-61
2023/10/17 04:28:49;;;;;;;27.75;12.18;;;8.30;99.90;;;;;;5060361;28;20048;-61
2023/10/17 04:31:25;;;;;;;31.40;13.85;;;8.30;99.90;;;;;;5060499;28;20021;-60
2023/10/17 04:33:56;;;;;;;32.00;12.88;;;8.30;99.90;;;;;;5061204;28;20047;-60
2023/10/17 04:36:23;;;;;;;58.47;13.98;;;8.20;99.90;;;;;;5065111;28;20026;-59
2023/10/17 04:39:10;;;;;;;37.28;13.48;;;8.00;99.90;;;;;;5064835;28;20043;-60
2023/10/17 04:41:48;;;;;;;65.18;13.82;;;7.80;99.90;;;;;;5064932;28;20117;-60
2023/10/17 04:44:17;;;;;;;105.75;14.57;;;7.70;99.90;;;;;;5064223;28;20028;-59
2023/10/17 04:49:39;;;;;;;35.67;12.85;;;;;;;;;;5022546;28;20080;-60
2023/10/17 04:54:41;;;;;;;38.30;14.10;;;;;;;;;;5021948;28;20525;-60
2023/10/17 04:57:09;;;;;;;64.10;17.13;;;;;;;;;;5022484;28;20038;-60
2023/10/17 05:07:53;;;;;;;36.20;15.20;;;;;;;;;;5022821;28;20180;-59
2023/10/17 06:18:57;;;;;;;16.17;11.93;;;13.20;99.90;;;;;;5033915;28;20624;-57
2023/10/17 06:21:36;;;;;;;16.17;11.52;;;;;;;;;;5015075;28;20037;-60
2023/10/17 06:26:47;;;;;;;25.55;17.60;;;;;;;;;;5031173;28;20515;-60
2023/10/17 06:34:20;;;;;;;23.08;16.67;;;14.60;99.90;;;;;;5041729;28;20043;-60
2023/10/17 06:37:09;;;;;;;21.88;16.15;;;14.80;99.90;;;;;;5051231;28;20405;-61
2023/10/17 06:39:58;;;;;;;24.80;18.65;;;15.30;99.90;;;;;;5034580;28;20046;-61
2023/10/17 06:42:38;;;;;;;24.02;18.33;;;15.50;99.90;;;;;;5038394;28;20443;-60
2023/10/17 06:45:08;;;;;;;27.17;19.48;;;15.70;99.90;;;;;;5052561;28;20136;-61
2023/10/17 06:47:47;;;;;;;25.92;18.65;;;15.70;99.90;;;;;;5048246;28;20075;-61
2023/10/17 06:55:22;;;;;;;25.15;19.50;;;15.20;99.90;;;;;;5063875;28;20430;-58
2023/10/17 06:57:52;;;;;;;22.58;18.92;;;14.90;99.90;;;;;;5053537;28;20028;-60
2023/10/17 07:03:04;;;;;;;22.13;18.00;;;14.40;99.90;;;;;;5053183;28;20078;-58
2023/10/17 07:05:35;;;;;;;23.98;18.33;;;14.30;99.90;;;;;;5053164;28;20025;-60
2023/10/17 07:08:01;;;;;;;25.58;18.95;;;14.20;99.90;;;;;;5072732;28;20060;-59
2023/10/17 07:13:34;;;;;;;23.67;17.98;;;14.20;99.90;;;;;;5072963;28;20023;-59
2023/10/17 07:16:25;;;;;;;22.30;17.00;;;14.00;99.90;;;;;;5052853;28;20070;-58
2023/10/17 07:18:55;;;;;;;22.42;18.00;;;13.80;99.90;;;;;;5052815;28;20397;-60
2023/10/17 07:21:24;;;;;;;21.40;16.25;;;14.00;99.90;;;;;;5055716;28;20100;-58
2023/10/17 07:23:54;;;;;;;21.95;17.33;;;13.30;99.90;;;;;;5056929;28;20021;-57
2023/10/17 07:26:38;;;;;;;22.08;16.67;;;13.70;99.90;;;;;;5052907;28;20029;-58
2023/10/17 07:29:05;;;;;;;22.23;17.77;;;14.40;99.90;;;;;;5052397;28;20041;-56
2023/10/17 07:31:31;;;;;;;17.83;15.93;;;14.30;99.90;;;;;;5034290;28;20073;-60
2023/10/17 07:36:37;;;;;;;21.08;15.75;;;15.40;99.90;;;;;;5052550;28;20499;-60
2023/10/17 07:39:06;;;;;;;24.08;15.60;;;;;;;;;;5052588;28;20033;-56
2023/10/17 07:41:36;;;;;;;21.23;15.43;;;;;;;;;;5056847;28;20021;-58
2023/10/17 07:44:19;;;;;;;21.70;16.15;;;15.90;99.90;;;;;;5069977;28;20029;-57
2023/10/17 07:46:48;;;;;;;25.13;15.60;;;15.80;99.90;;;;;;5052288;28;20037;-58
2023/10/17 07:49:16;;;;;;;24.92;16.90;;;15.70;99.90;;;;;;5052593;28;20102;-57
2023/10/17 07:51:42;;;;;;;39.53;26.33;;;15.60;99.90;;;;;;5052302;28;20032;-56
2023/10/17 07:54:08;;;;;;;63.10;36.28;;;15.40;99.90;;;;;;5052416;28;20421;-60
2023/10/17 07:56:34;;;;;;;28.08;21.42;;;15.20;99.90;;;;;;5052160;28;20465;-60
2023/10/17 07:59:08;;;;;;;18.63;16.60;;;15.10;99.90;;;;;;5052154;28;20079;-59
2023/10/17 08:01:46;;;;;;;21.63;16.58;;;14.80;99.90;;;;;;5052111;28;20039;-56
2023/10/17 08:06:42;;;;;;;23.10;17.63;;;14.60;99.90;;;;;;5064046;28;20475;-64
2023/10/17 08:11:53;;;;;;;25.93;18.43;;;14.50;99.90;;;;;;5062689;28;20035;-60
2023/10/17 08:14:31;;;;;;;22.48;16.33;;;14.50;99.90;;;;;;5062779;28;20025;-59
2023/10/17 08:16:58;;;;;;;21.52;16.73;;;14.40;99.90;;;;;;5071759;28;20037;-59
2023/10/17 08:19:29;;;;;;;23.08;17.38;;;;;;;;;;5070178;28;20063;-61
2023/10/17 08:24:40;;;;;;;26.27;18.80;;;14.30;99.90;;;;;;5048908;28;20021;-56
2023/10/17 08:27:13;;;;;;;23.88;17.27;;;14.30;99.90;;;;;;5041302;28;20393;-57
2023/10/17 08:30:05;;;;;;;24.60;17.50;;;14.30;99.90;;;;;;5039222;28;20053;-58
2023/10/17 08:32:47;;;;;;;23.00;17.70;;;14.30;99.90;;;;;;5041873;28;20045;-59
2023/10/17 08:35:20;;;;;;;22.27;17.13;;;14.40;99.90;;;;;;5035779;28;20057;-60
2023/10/17 08:48:56;;;;;;;28.15;22.42;;;;;;;;;;5033687;28;20114;-59
2023/10/17 08:51:23;;;;;;;39.15;26.77;;;13.50;99.90;;;;;;5041992;28;20045;-54
2023/10/17 08:53:48;;;;;;;47.95;30.27;;;13.80;99.90;;;;;;5030392;28;20124;-54
2023/10/17 08:56:14;;;;;;;43.45;29.65;;;13.80;99.90;;;;;;5028837;28;20140;-53
2023/10/17 08:58:43;;;;;;;43.30;30.00;;;13.80;99.90;;;;;;5028611;28;20048;-54
2023/10/17 09:01:14;;;;;;;43.88;29.77;;;14.20;99.90;;;;;;5038039;28;20094;-53
2023/10/17 09:03:46;;;;;;;42.67;30.65;;;14.10;99.90;;;;;;5035448;28;20034;-53
2023/10/17 09:09:17;;;;;;;33.20;24.80;;;14.50;99.90;;;;;;5030742;28;20595;-54
2023/10/17 09:12:01;;;;;;;38.25;24.80;;;14.70;99.90;;;;;;5035675;28;20048;-53
2023/10/17 09:14:35;;;;;;;25.35;18.63;;;15.00;99.90;;;;;;5032733;28;20365;-54
2023/10/17 09:17:10;;;;;;;27.55;21.30;;;15.00;99.90;;;;;;5037609;28;20072;-53
2023/10/17 09:19:51;;;;;;;28.33;20.63;;;15.00;99.90;;;;;;5015815;28;20056;-53
2023/10/17 09:22:40;;;;;;;29.05;20.27;;;14.70;99.90;;;;;;5004430;28;20116;-52
2023/10/17 09:25:23;;;;;;;31.70;23.30;;;;;;;;;;5039632;28;20067;-52
2023/10/17 09:27:50;;;;;;;24.92;20.38;;;14.60;99.90;;;;;;5043769;28;20025;-51
2023/10/17 09:30:17;;;;;;;31.25;24.90;;;14.70;99.90;;;;;;5036947;28;20158;-52
2023/10/17 09:32:42;;;;;;;28.58;23.08;;;14.70;99.90;;;;;;5043037;28;20476;-53
2023/10/17 09:35:16;;;;;;;27.90;20.80;;;14.70;99.90;;;;;;5031872;28;20156;-52
2023/10/17 09:37:46;;;;;;;27.08;19.65;;;15.00;99.90;;;;;;5041186;28;20049;-52
2023/10/17 09:40:14;;;;;;;26.95;21.08;;;15.00;99.90;;;;;;5051151;28;20548;-52
2023/10/17 09:42:44;;;;;;;26.38;20.23;;;15.20;99.90;;;;;;5042903;28;20052;-52
2023/10/17 09:45:33;;;;;;;26.98;20.98;;;15.50;99.90;;;;;;5033968;28;20044;-52
2023/10/17 09:48:04;;;;;;;27.65;22.33;;;15.70;99.90;;;;;;5011357;28;20153;-52
2023/10/17 09:50:34;;;;;;;30.40;22.70;;;15.90;99.90;;;;;;5011319;28;20065;-52
2023/10/17 09:53:22;;;;;;;27.63;22.38;;;16.10;99.90;;;;;;5025756;28;20037;-52
2023/10/17 09:55:55;;;;;;;25.17;20.15;;;;;;;;;;5030941;28;20056;-53
2023/10/17 09:58:23;;;;;;;31.13;20.13;;;;;;;;;;5021565;28;20052;-53
2023/10/17 10:00:53;;;;;;;30.95;18.98;;;16.90;99.90;;;;;;5019599;28;20076;-53
2023/10/17 10:03:21;;;;;;;23.23;16.15;;;;;;;;;;5020117;28;20120;-53
2023/10/17 10:05:47;;;;;;;17.20;10.75;;;;;;;;;;5019420;28;20018;-53
2023/10/17 10:08:32;;;;;;;14.93;11.18;;;17.20;99.90;;;;;;5021415;28;20184;-51
2023/10/17 10:10:59;;;;;;;15.02;10.48;;;17.50;99.90;;;;;;5017270;28;20500;-53
2023/10/17 10:13:25;;;;;;;12.77;10.05;;;17.30;99.90;;;;;;5021036;28;20042;-53
2023/10/17 10:15:58;;;;;;;13.60;10.30;;;17.00;99.80;;;;;;5018980;28;20029;-54
2023/10/17 10:18:36;;;;;;;12.23;9.73;;;16.90;99.70;;;;;;5025562;28;20112;-56
2023/10/17 10:21:02;;;;;;;14.45;10.05;;;;;;;;;;5040910;28;20029;-55
2023/10/17 10:23:41;;;;;;;14.60;11.07;;;;;;;;;;5033049;28;20039;-55
2023/10/17 10:26:14;;;;;;;13.40;11.35;;;17.80;99.70;;;;;;5033306;28;20036;-53
2023/10/17 10:28:43;;;;;;;16.63;11.15;;;18.00;99.60;;;;;;5033259;28;20060;-55
2023/10/17 10:31:30;;;;;;;16.27;10.77;;;18.00;99.90;;;;;;5014121;28;20648;-54
2023/10/17 10:33:58;;;;;;;14.23;10.20;;;18.00;99.90;;;;;;5033128;28;20038;-55
2023/10/17 10:36:24;;;;;;;11.10;8.40;;;;;;;;;;5032316;28;20029;-54
2023/10/17 10:38:53;;;;;;;9.70;8.63;;;;;;;;;;5032831;28;20594;-54
2023/10/17 10:41:22;;;;;;;12.70;8.57;;;18.80;99.90;;;;;;5032898;28;20107;-53
2023/10/17 10:43:51;;;;;;;12.73;9.95;;;;;;;;;;5014001;28;20041;-54
2023/10/17 10:46:17;;;;;;;10.68;9.43;;;19.40;97.40;;;;;;5033568;28;20479;-54
2023/10/17 10:48:53;;;;;;;10.68;8.68;;;19.30;97.60;;;;;;5032564;28;20041;-54
2023/10/17 10:51:24;;;;;;;11.80;8.68;;;19.70;98.30;;;;;;5032916;28;20389;-54
2023/10/17 10:54:08;;;;;;;15.25;9.25;;;19.60;97.70;;;;;;5010372;28;20046;-54
2023/10/17 10:56:37;;;;;;;9.60;6.35;;;20.10;97.70;;;;;;5010272;28;20084;-54
2023/10/17 10:59:04;;;;;;;8.80;6.38;;;;;;;;;;5010433;28;20135;-54
2023/10/17 11:01:31;;;;;;;9.82;6.47;;;;;;;;;;5010135;28;20037;-53
2023/10/17 11:03:58;;;;;;;8.50;6.57;;;20.20;99.90;;;;;;5010259;28;20401;-54
2023/10/17 11:06:25;;;;;;;8.40;6.85;;;19.20;96.50;;;;;;5010411;28;20037;-54
2023/10/17 11:08:52;;;;;;;10.43;6.55;;;19.30;96.60;;;;;;5010021;28;20041;-55
2023/10/17 11:11:19;;;;;;;9.35;7.05;;;18.90;95.50;;;;;;5010502;28;20041;-54
2023/10/17 11:13:54;;;;;;;10.43;6.97;;;19.00;96.50;;;;;;5009920;28;20065;-54
2023/10/17 11:16:25;;;;;;;15.60;10.32;;;19.20;96.10;;;;;;5010028;28;20030;-55
2023/10/17 11:18:51;;;;;;;15.10;8.32;;;19.70;96.30;;;;;;4976976;28;20045;-54
2023/10/17 11:21:22;;;;;;;9.02;7.18;;;;;;;;;;5009803;28;20125;-54
2023/10/17 11:23:50;;;;;;;9.05;7.03;;;;;;;;;;5010081;28;20421;-52
2023/10/17 11:26:19;;;;;;;8.25;6.63;;;;;;;;;;5030638;28;20128;-52
2023/10/17 11:28:51;;;;;;;10.50;7.55;;;;;;;;;;5043201;28;20025;-52
2023/10/17 11:31:24;;;;;;;9.43;7.82;;;;;;;;;;5046152;28;20071;-52
2023/10/17 11:33:55;;;;;;;10.63;7.93;;;19.80;95.50;;;;;;5050974;28;20021;-54
2023/10/17 11:36:22;;;;;;;12.53;7.67;;;19.40;96.40;;;;;;5051695;28;20039;-53
2023/10/17 11:38:56;;;;;;;12.20;7.65;;;19.10;97.20;;;;;;5013958;28;20076;-52
2023/10/17 11:41:28;;;;;;;9.65;6.07;;;19.00;99.90;;;;;;5051690;28;20037;-53
2023/10/17 11:43:54;;;;;;;7.22;5.85;;;19.00;99.20;;;;;;5051458;28;20120;-52
2023/10/17 11:46:37;;;;;;;8.82;5.95;;;19.10;96.90;;;;;;5051751;28;20104;-53
2023/10/17 11:49:30;;;;;;;9.23;6.35;;;19.10;97.20;;;;;;5045896;28;20130;-52
2023/10/17 11:52:00;;;;;;;8.85;6.72;;;19.30;97.00;;;;;;5048481;28;20541;-52
2023/10/17 11:54:26;;;;;;;10.90;7.63;;;19.00;97.00;;;;;;5049895;28;20044;-52
2023/10/17 11:56:54;;;;;;;9.98;7.18;;;19.50;99.90;;;;;;5050279;28;20021;-53
2023/10/17 11:59:20;;;;;;;10.40;6.05;;;19.60;99.90;;;;;;5049981;28;20040;-52
2023/10/17 12:01:47;;;;;;;12.50;5.80;;;20.10;99.80;;;;;;5014832;28;20036;-52
2023/10/17 12:04:16;;;;;;;6.95;4.90;;;20.20;99.90;;;;;;5049812;28;20033;-53
2023/10/17 12:06:49;;;;;;;8.38;6.32;;;19.90;99.90;;;;;;4968791;28;20039;-52
2023/10/17 12:09:22;;;;;;;8.43;6.25;;;20.10;99.90;;;;;;4931311;28;20034;-52
2023/10/17 12:11:50;;;;;;;11.65;6.05;;;20.30;99.90;;;;;;4967546;28;20043;-53
2023/10/17 12:14:19;;;;;;;8.73;6.97;;;;;;;;;;4966824;28;20076;-52
2023/10/17 12:16:49;;;;;;;11.15;7.03;;;;;;;;;;4966262;28;20098;-53
2023/10/17 12:19:19;;;;;;;9.40;6.32;;;;;;;;;;4965715;28;20047;-54
2023/10/17 12:21:48;;;;;;;10.45;6.97;;;;;;;;;;4962587;28;20127;-52
2023/10/17 12:24:20;;;;;;;11.30;6.35;;;20.60;99.90;;;;;;4956182;28;20046;-54
2023/10/17 12:26:52;;;;;;;7.93;7.13;;;;;;;;;;4966745;28;20039;-53
2023/10/17 12:29:35;;;;;;;10.65;7.90;;;;;;;;;;4921736;29;20044;-51
2023/10/17 12:32:05;;;;;;;7.82;6.00;;;19.70;99.90;;;;;;4911648;29;20052;-55
2023/10/17 12:34:33;;;;;;;13.70;7.20;;;;;;;;;;4928573;29;20118;-55
2023/10/17 12:37:02;;;;;;;16.55;8.52;;;;;;;;;;4940364;28;20588;-51
2023/10/17 12:39:31;;;;;;;19.67;8.75;;;;;;;;;;4985773;28;20476;-52
2023/10/17 12:41:58;;;;;;;8.95;4.53;;;;;;;;;;4987585;28;20034;-53
2023/10/17 12:44:25;;;;;;;7.95;4.38;;;19.70;99.80;;;;;;4971255;28;20077;-52
2023/10/17 12:46:50;;;;;;;11.80;3.83;;;19.70;99.40;;;;;;4987809;28;20473;-52
2023/10/17 12:49:19;;;;;;;6.25;3.05;;;19.50;99.20;;;;;;4970396;28;20056;-56
2023/10/17 12:51:47;;;;;;;4.43;2.90;;;19.40;98.90;;;;;;4986017;28;20026;-56
2023/10/17 12:54:13;;;;;;;5.30;3.00;;;19.60;98.50;;;;;;4985508;28;20046;-54
2023/10/17 12:56:39;;;;;;;5.07;3.10;;;19.40;97.80;;;;;;4991729;28;20038;-53
2023/10/17 12:59:05;;;;;;;6.15;3.30;;;19.60;97.80;;;;;;4960145;28;20097;-55
2023/10/17 13:01:32;;;;;;;7.32;4.40;;;;;;;;;;5010005;28;20113;-54
2023/10/17 13:03:58;;;;;;;9.35;5.07;;;;;;;;;;5012543;28;20485;-52
2023/10/17 13:06:27;;;;;;;8.52;5.20;;;;;;;;;;5031625;28;20512;-53
2023/10/17 13:08:56;;;;;;;11.98;6.53;;;;;;;;;;5034599;28;20029;-53
2023/10/17 13:11:29;;;;;;;9.38;6.07;;;;;;;;;;5016790;28;20025;-53
2023/10/17 13:13:55;;;;;;;9.60;5.68;;;20.40;99.90;;;;;;4992554;28;20045;-54
2023/10/17 13:16:26;;;;;;;8.02;5.18;;;;;;;;;;4992810;28;20042;-55
2023/10/17 13:18:55;;;;;;;15.15;7.18;;;;;;;;;;4992590;28;20046;-53
2023/10/17 13:21:21;;;;;;;10.57;5.90;;;;;;;;;;4992587;28;20034;-53
2023/10/17 13:23:48;;;;;;;9.13;5.20;;;;;;;;;;4992715;28;20050;-53
2023/10/17 13:26:15;;;;;;;8.45;5.63;;;;;;;;;;4976376;28;20041;-53
2023/10/17 13:28:42;;;;;;;9.20;5.20;;;;;;;;;;4992527;28;20411;-55
2023/10/17 13:31:12;;;;;;;7.80;5.35;;;;;;;;;;4992301;28;20026;-54
2023/10/17 13:33:45;;;;;;;8.98;5.68;;;;;;;;;;4992421;28;20567;-54
2023/10/17 13:36:11;;;;;;;10.10;5.32;;;;;;;;;;4992533;28;20030;-53
2023/10/17 13:38:40;;;;;;;7.20;4.72;;;;;;;;;;4959400;28;20174;-54
2023/10/17 13:41:09;;;;;;;10.02;5.70;;;;;;;;;;4992303;28;20038;-52
2023/10/17 13:43:36;;;;;;;7.60;4.88;;;;;;;;;;4992076;28;20030;-52
2023/10/17 13:46:12;;;;;;;6.72;4.50;;;;;;;;;;5032394;28;20039;-55
2023/10/17 13:48:40;;;;;;;8.45;6.15;;;20.50;95.80;;;;;;5041790;28;20087;-55
2023/10/17 13:51:06;;;;;;;7.90;6.03;;;20.80;99.90;;;;;;5053802;28;20037;-53
2023/10/17 13:53:36;;;;;;;14.48;9.52;;;20.80;99.90;;;;;;5053818;28;20033;-53
2023/10/17 13:56:15;;;;;;;12.50;8.57;;;21.10;99.90;;;;;;5053466;28;20033;-53
2023/10/17 13:58:41;;;;;;;14.63;8.45;;;21.30;99.90;;;;;;5053782;28;20033;-53
2023/10/17 14:01:28;;;;;;;6.90;4.47;;;21.50;99.90;;;;;;5053986;28;20112;-53
2023/10/17 14:03:58;;;;;;;10.20;4.63;;;21.40;99.90;;;;;;5053728;28;20032;-54
2023/10/17 14:06:27;;;;;;;5.75;3.95;;;21.30;99.90;;;;;;5053209;28;20092;-54
2023/10/17 14:08:56;;;;;;;6.60;4.05;;;21.40;99.90;;;;;;5053184;28;20079;-53
2023/10/17 14:11:23;;;;;;;7.40;3.90;;;;;;;;;;5053605;28;20377;-55
2023/10/17 14:13:50;;;;;;;7.10;3.50;;;;;;;;;;5053530;28;20033;-56
2023/10/17 14:16:16;;;;;;;6.05;4.10;;;;;;;;;;5053846;28;20029;-55
2023/10/17 14:18:44;;;;;;;7.22;4.88;;;;;;;;;;5053085;28;20056;-55
2023/10/17 14:23:57;;;;;;;7.88;4.85;;;20.90;90.80;;;;;;5053224;28;20448;-54
2023/10/17 14:26:29;;;;;;;9.98;7.00;;;20.70;91.20;;;;;;5053322;28;20029;-55
2023/10/17 14:28:56;;;;;;;10.13;5.35;;;20.60;92.10;;;;;;5015027;28;20515;-55
2023/10/17 14:31:25;;;;;;;13.05;8.10;;;20.60;92.30;;;;;;5053078;28;20111;-54
2023/10/17 14:33:55;;;;;;;7.45;4.47;;;20.50;91.10;;;;;;5053325;28;20059;-54
2023/10/17 14:36:21;;;;;;;11.20;4.80;;;20.00;99.90;;;;;;5053225;28;20464;-53
2023/10/17 14:38:48;;;;;;;7.57;4.32;;;19.60;89.80;;;;;;5052932;28;20071;-55
2023/10/17 14:41:14;;;;;;;7.82;4.40;;;19.60;92.40;;;;;;5052803;28;20123;-54
2023/10/17 14:43:54;;;;;;;7.70;4.10;;;19.40;89.90;;;;;;5017311;28;20029;-54
2023/10/17 14:46:24;;;;;;;5.30;4.28;;;;;;;;;;5053033;28;20539;-54
2023/10/17 14:48:50;;;;;;;12.63;5.22;;;19.30;99.10;;;;;;5052328;28;20514;-54
2023/10/17 14:51:16;;;;;;;5.63;3.92;;;19.50;99.60;;;;;;5052841;28;20029;-55
2023/10/17 14:53:43;;;;;;;9.00;4.60;;;19.50;99.60;;;;;;5052386;28;20033;-54
2023/10/17 14:56:12;;;;;;;6.90;3.97;;;19.50;99.40;;;;;;5016962;28;20036;-52
2023/10/17 14:58:40;;;;;;;7.28;3.60;;;19.50;99.20;;;;;;5052845;28;20074;-52
2023/10/17 15:01:06;;;;;;;11.73;4.80;;;19.50;99.20;;;;;;5052326;28;20604;-53
2023/10/17 15:03:32;;;;;;;9.60;4.72;;;19.30;99.00;;;;;;5052444;28;20032;-53
2023/10/17 15:05:59;;;;;;;5.75;3.53;;;19.30;99.20;;;;;;5052393;28;20033;-53
2023/10/17 15:08:25;;;;;;;7.05;3.13;;;19.10;99.90;;;;;;5052441;28;20108;-53
2023/10/17 15:10:51;;;;;;;5.05;3.10;;;19.00;99.90;;;;;;5052344;28;20029;-53
2023/10/17 15:13:17;;;;;;;5.65;3.20;;;18.60;90.00;;;;;;5052490;28;20043;-53
2023/10/17 15:15:43;;;;;;;7.45;3.20;;;18.10;90.30;;;;;;5051570;28;20048;-53
2023/10/17 15:18:09;;;;;;;6.28;3.83;;;;;;;;;;5016147;28;20037;-53
2023/10/17 15:20:35;;;;;;;6.50;3.03;;;17.60;90.50;;;;;;5051726;28;20029;-54
2023/10/17 15:23:01;;;;;;;7.28;3.38;;;17.20;91.00;;;;;;5016605;28;20135;-53
2023/10/17 15:25:29;;;;;;;6.63;3.58;;;17.10;91.10;;;;;;5052138;28;20046;-53
2023/10/17 15:27:55;;;;;;;7.05;4.22;;;17.00;91.20;;;;;;5052310;28;20096;-53
2023/10/17 15:30:22;;;;;;;26.27;18.00;;;17.00;91.20;;;;;;5033015;28;20087;-53
2023/10/17 15:32:49;;;;;;;34.88;9.23;;;17.00;92.10;;;;;;5052159;28;20068;-54
2023/10/17 15:35:15;;;;;;;7.53;4.00;;;;;;;;;;5051811;28;20075;-53
2023/10/17 15:37:48;;;;;;;7.45;3.60;;;;;;;;;;5048641;28;20051;-53
2023/10/17 15:40:21;;;;;;;8.05;3.53;;;16.60;99.90;;;;;;5052059;28;20021;-53
2023/10/17 15:42:48;;;;;;;5.63;3.47;;;16.20;91.60;;;;;;5051615;28;20028;-54
2023/10/17 15:45:16;;;;;;;11.70;7.93;;;16.10;99.90;;;;;;5051737;28;20058;-53
2023/10/17 15:47:42;;;;;;;11.13;6.78;;;;;;;;;;4983338;28;20033;-53
2023/10/17 15:50:12;;;;;;;13.20;7.30;;;;;;;;;;5051874;28;20097;-53
2023/10/17 15:52:38;;;;;;;9.75;6.38;;;;;;;;;;5051557;28;20040;-53
2023/10/17 15:55:07;;;;;;;17.23;6.75;;;;;;;;;;5051668;28;20147;-53
2023/10/17 15:57:33;;;;;;;20.75;14.95;;;;;;;;;;5051402;28;20040;-53
2023/10/17 16:00:00;;;;;;;12.40;8.65;;;;;;;;;;5051298;28;20043;-53
2023/10/17 16:02:26;;;;;;;9.50;7.47;;;;;;;;;;5051201;28;20040;-54
2023/10/17 16:04:54;;;;;;;14.45;8.75;;;;;;;;;;5051467;28;20029;-53
2023/10/17 16:07:20;;;;;;;19.90;11.90;;;;;;;;;;5016422;28;20079;-53